createdAt,value
2019-05-20T00:00:40.781Z,9.85
2019-05-20T00:03:09.530Z,10.25
2019-05-20T00:05:38.306Z,9.43
2019-05-20T00:08:07.435Z,9.30
2019-05-20T00:10:36.221Z,9.45
2019-05-20T00:13:05.042Z,9.50
2019-05-20T00:15:33.847Z,10.15
2019-05-20T00:18:02.567Z,10.93
2019-05-20T00:20:31.264Z,9.83
2019-05-20T00:23:00.170Z,10.75
2019-05-20T00:25:28.843Z,9.73
2019-05-20T00:27:57.807Z,9.83
2019-05-20T00:30:26.549Z,9.83
2019-05-20T00:32:55.231Z,10.38
2019-05-20T00:35:23.898Z,9.67
2019-05-20T00:37:52.687Z,10.67
2019-05-20T00:40:21.655Z,9.50
2019-05-20T00:42:50.331Z,10.20
2019-05-20T00:45:19.132Z,8.13
2019-05-20T00:47:47.975Z,9.33
2019-05-20T00:50:16.718Z,9.38
2019-05-20T00:52:45.442Z,9.90
2019-05-20T00:55:24.289Z,9.08
2019-05-20T00:57:53.432Z,9.60
2019-05-20T01:00:22.981Z,8.85
2019-05-20T01:02:56.949Z,9.50
2019-05-20T01:05:22.234Z,9.80
2019-05-20T01:07:51.090Z,9.23
2019-05-20T01:10:20.088Z,9.40
2019-05-20T01:12:49.095Z,9.60
2019-05-20T01:15:18.254Z,9.55
2019-05-20T01:17:47.309Z,9.50
2019-05-20T01:20:16.493Z,9.77
2019-05-20T01:22:45.488Z,9.28
2019-05-20T01:25:14.294Z,9.78
2019-05-20T01:27:43.210Z,9.23
2019-05-20T01:30:14.104Z,9.63
2019-05-20T01:32:43.012Z,9.33
2019-05-20T01:35:12.240Z,8.70
2019-05-20T01:37:40.925Z,9.10
2019-05-20T01:40:09.965Z,8.83
2019-05-20T01:42:38.963Z,9.63
2019-05-20T01:45:08.035Z,9.85
2019-05-20T01:47:36.735Z,8.98
2019-05-20T01:50:06.610Z,9.63
2019-05-20T01:52:35.811Z,9.60
2019-05-20T01:55:05.256Z,9.18
2019-05-20T01:57:34.094Z,9.10
2019-05-20T02:00:03.254Z,10.43
2019-05-20T02:02:31.923Z,10.35
2019-05-20T02:05:00.646Z,10.60
2019-05-20T02:07:29.603Z,9.40
2019-05-20T02:09:58.296Z,10.13
2019-05-20T02:12:27.052Z,9.65
2019-05-20T02:15:01.889Z,9.33
2019-05-20T02:17:30.811Z,8.85
2019-05-20T02:19:59.513Z,10.58
2019-05-20T02:22:28.266Z,9.83
2019-05-20T02:24:57.284Z,8.98
2019-05-20T02:27:26.154Z,9.63
2019-05-20T02:29:55.127Z,9.28
2019-05-20T02:32:24.159Z,8.95
2019-05-20T02:34:52.848Z,8.50
2019-05-20T02:37:21.846Z,9.53
2019-05-20T02:39:50.712Z,8.85
2019-05-20T02:42:19.756Z,10.40
2019-05-20T02:44:48.562Z,10.03
2019-05-20T02:47:18.147Z,10.94
2019-05-20T02:49:47.437Z,9.17
2019-05-20T02:52:16.748Z,9.48
2019-05-20T02:54:45.967Z,9.38
2019-05-20T02:57:14.697Z,8.55
2019-05-20T02:59:43.630Z,10.70
2019-05-20T03:02:12.452Z,10.08
2019-05-20T03:04:41.139Z,9.43
2019-05-20T03:07:09.951Z,10.20
2019-05-20T03:09:38.662Z,9.65
2019-05-20T03:12:07.359Z,9.93
2019-05-20T03:14:36.171Z,9.18
2019-05-20T03:17:05.262Z,10.18
2019-05-20T03:19:34.004Z,9.90
2019-05-20T03:22:02.939Z,9.88
2019-05-20T03:24:32.223Z,9.53
2019-05-20T03:27:01.170Z,9.40
2019-05-20T03:29:29.880Z,8.80
2019-05-20T03:31:58.909Z,8.70
2019-05-20T03:34:45.775Z,9.60
2019-05-20T03:36:58.020Z,9.50
2019-05-20T03:39:27.421Z,9.95
2019-05-20T03:41:56.337Z,9.23
2019-05-20T03:44:25.063Z,9.03
2019-05-20T03:46:53.872Z,8.88
2019-05-20T03:49:22.819Z,9.03
2019-05-20T03:51:52.604Z,9.80
2019-05-20T03:54:22.579Z,7.67
2019-05-20T03:56:51.504Z,8.56
2019-05-20T03:59:20.248Z,8.75
2019-05-20T04:01:48.966Z,8.88
2019-05-20T04:04:17.687Z,8.40
2019-05-20T04:06:46.621Z,8.70
2019-05-20T04:09:15.595Z,8.43
2019-05-20T04:11:44.717Z,8.60
2019-05-20T04:14:13.383Z,9.38
2019-05-20T04:16:42.187Z,9.05
2019-05-20T04:19:11.090Z,8.70
2019-05-20T04:21:40.033Z,9.08
2019-05-20T04:24:08.918Z,8.48
2019-05-20T04:26:37.926Z,8.40
2019-05-20T04:29:06.650Z,8.08
2019-05-20T04:31:35.779Z,7.28
2019-05-20T04:34:04.544Z,8.43
2019-05-20T04:36:33.388Z,8.25
2019-05-20T04:39:02.251Z,8.13
2019-05-20T04:41:30.978Z,8.70
2019-05-20T04:43:59.703Z,7.80
2019-05-20T04:46:28.761Z,8.13
2019-05-20T04:48:57.420Z,7.78
2019-05-20T04:51:26.127Z,8.65
2019-05-20T04:53:55.316Z,7.67
2019-05-20T04:56:24.604Z,8.60
2019-05-20T04:58:53.453Z,8.45
2019-05-20T05:01:22.437Z,8.38
2019-05-20T05:03:51.518Z,8.85
2019-05-20T05:06:21.253Z,8.35
2019-05-20T05:08:50.049Z,9.33
2019-05-20T05:11:19.106Z,8.60
2019-05-20T05:13:48.103Z,7.85
2019-05-20T05:16:16.970Z,9.20
2019-05-20T05:18:46.165Z,7.85
2019-05-20T05:21:14.921Z,8.15
2019-05-20T05:23:58.069Z,7.95
2019-05-20T05:26:14.308Z,7.85
2019-05-20T05:28:43.316Z,7.47
2019-05-20T05:31:12.675Z,7.55
2019-05-20T05:33:41.512Z,7.45
2019-05-20T05:36:10.387Z,8.50
2019-05-20T05:38:39.524Z,7.55
2019-05-20T05:41:08.587Z,8.35
2019-05-20T05:43:37.644Z,7.90
2019-05-20T05:46:06.600Z,8.70
2019-05-20T05:48:35.282Z,8.27
2019-05-20T05:51:04.040Z,7.67
2019-05-20T05:53:32.775Z,8.30
2019-05-20T05:56:01.477Z,7.58
2019-05-20T05:58:30.286Z,7.95
2019-05-20T06:00:59.560Z,7.85
2019-05-20T06:03:28.301Z,7.87
2019-05-20T06:06:11.299Z,7.87
2019-05-20T06:08:27.970Z,7.85
2019-05-20T06:11:01.015Z,8.13
2019-05-20T06:13:29.706Z,8.05
2019-05-20T06:15:58.659Z,8.28
2019-05-20T06:18:27.662Z,8.48
2019-05-20T06:20:56.376Z,7.90
2019-05-20T06:23:25.247Z,7.55
2019-05-20T06:25:54.115Z,7.12
2019-05-20T06:28:22.909Z,7.72
2019-05-20T06:30:52.219Z,7.28
2019-05-20T06:33:21.135Z,7.33
2019-05-20T06:35:50.566Z,7.53
2019-05-20T06:38:41.451Z,6.92
2019-05-20T06:41:10.214Z,7.80
2019-05-20T06:43:39.245Z,7.50
2019-05-20T06:46:08.562Z,7.20
2019-05-20T06:48:37.322Z,7.72
2019-05-20T06:51:06.063Z,7.87
2019-05-20T06:53:35.275Z,6.63
2019-05-20T06:56:04.285Z,7.65
2019-05-20T06:58:33.545Z,7.20
2019-05-20T07:01:03.347Z,7.20
2019-05-20T07:03:32.200Z,6.62
2019-05-20T07:06:01.324Z,7.10
2019-05-20T07:08:30.296Z,6.80
2019-05-20T07:10:59.512Z,6.62
2019-05-20T07:13:28.654Z,6.70
2019-05-20T07:15:58.520Z,6.27
2019-05-20T07:18:27.593Z,6.63
2019-05-20T07:20:56.939Z,5.53
2019-05-20T07:23:25.790Z,5.25
2019-05-20T07:25:54.441Z,5.37
2019-05-20T07:28:23.230Z,5.67
2019-05-20T07:30:52.067Z,5.37
2019-05-20T07:33:20.784Z,5.55
2019-05-20T07:35:50.071Z,5.55
2019-05-20T07:38:19.498Z,6.20
2019-05-20T07:40:48.424Z,5.45
2019-05-20T07:43:17.601Z,5.55
2019-05-20T07:45:47.426Z,5.72
2019-05-20T07:48:16.813Z,6.05
2019-05-20T07:50:46.355Z,6.12
2019-05-20T07:53:16.265Z,6.00
2019-05-20T07:55:54.931Z,5.97
2019-05-20T07:58:26.274Z,5.90
2019-05-20T08:00:55.244Z,5.70
2019-05-20T08:03:24.247Z,6.05
2019-05-20T08:05:53.075Z,5.80
2019-05-20T08:08:21.834Z,5.33
2019-05-20T08:10:50.611Z,5.90
2019-05-20T08:13:19.675Z,5.12
2019-05-20T08:15:48.699Z,5.22
2019-05-20T08:18:20.130Z,4.58
2019-05-20T08:20:47.982Z,4.78
2019-05-20T08:23:16.650Z,4.93
2019-05-20T08:25:45.636Z,4.37
2019-05-20T08:28:14.326Z,4.25
2019-05-20T08:30:43.148Z,4.12
2019-05-20T08:33:11.827Z,4.28
2019-05-20T08:35:40.877Z,3.70
2019-05-20T08:38:09.664Z,3.55
2019-05-20T08:40:38.483Z,3.92
2019-05-20T08:43:07.302Z,3.70
2019-05-20T08:45:36.028Z,4.03
2019-05-20T08:48:05.023Z,4.22
2019-05-20T08:50:33.884Z,3.35
2019-05-20T08:53:02.698Z,3.10
2019-05-20T08:55:31.754Z,4.05
2019-05-20T08:58:00.523Z,3.65
2019-05-20T09:00:29.331Z,3.80
2019-05-20T09:02:58.397Z,3.20
2019-05-20T09:05:28.852Z,3.08
2019-05-20T09:08:02.792Z,3.33
2019-05-20T09:10:28.494Z,3.40
2019-05-20T09:12:57.226Z,3.95
2019-05-20T09:15:25.987Z,3.22
2019-05-20T09:17:55.059Z,3.37
2019-05-20T09:20:24.911Z,3.20
2019-05-20T09:22:53.811Z,3.33
2019-05-20T09:25:30.518Z,3.75
2019-05-20T09:28:00.091Z,3.37
2019-05-20T09:30:29.287Z,3.33
2019-05-20T09:32:58.329Z,3.50
2019-05-20T09:35:27.540Z,3.60
2019-05-20T09:37:56.227Z,3.30
2019-05-20T09:40:39.189Z,3.10
2019-05-20T09:43:08.199Z,4.05
2019-05-20T09:45:37.095Z,3.00
2019-05-20T09:48:06.696Z,3.33
2019-05-20T09:50:35.547Z,3.20
2019-05-20T09:53:07.235Z,3.40
2019-05-20T09:55:35.354Z,3.05
2019-05-20T09:58:05.392Z,3.90
2019-05-20T10:00:34.219Z,3.08
2019-05-20T10:03:03.462Z,3.25
2019-05-20T10:05:32.682Z,3.02
2019-05-20T10:08:02.268Z,3.10
2019-05-20T10:10:31.291Z,3.75
2019-05-20T10:13:00.519Z,3.03
2019-05-20T10:15:29.351Z,3.45
2019-05-20T10:17:58.388Z,3.22
2019-05-20T10:20:27.279Z,3.50
2019-05-20T10:22:56.307Z,3.75
2019-05-20T10:25:25.186Z,3.55
2019-05-20T10:27:57.327Z,3.08
2019-05-20T10:30:25.959Z,3.87
2019-05-20T10:32:55.001Z,3.60
2019-05-20T10:35:23.738Z,3.13
2019-05-20T10:37:52.620Z,3.67
2019-05-20T10:40:21.447Z,3.80
2019-05-20T10:42:50.212Z,3.77
2019-05-20T10:45:19.306Z,3.40
2019-05-20T10:47:47.990Z,3.35
2019-05-20T10:50:17.382Z,3.42
2019-05-20T10:52:46.044Z,3.00
2019-05-20T10:55:14.922Z,2.95
2019-05-20T10:57:43.596Z,3.23
2019-05-20T11:00:12.588Z,3.25
2019-05-20T11:02:41.271Z,3.02
2019-05-20T11:05:10.298Z,2.58
2019-05-20T11:07:39.137Z,3.65
2019-05-20T11:10:08.858Z,3.27
2019-05-20T11:12:37.530Z,3.67
2019-05-20T11:15:06.918Z,3.55
2019-05-20T11:17:35.719Z,3.25
2019-05-20T11:20:05.537Z,4.13
2019-05-20T11:22:34.730Z,3.55
2019-05-20T11:25:03.807Z,4.15
2019-05-20T11:27:32.566Z,3.50
2019-05-20T11:30:01.514Z,3.10
2019-05-20T11:32:30.509Z,3.33
2019-05-20T11:34:59.465Z,3.65
2019-05-20T11:37:28.419Z,3.50
2019-05-20T11:39:57.292Z,2.70
2019-05-20T11:42:26.032Z,3.75
2019-05-20T11:44:54.742Z,3.67
2019-05-20T11:47:23.582Z,3.72
2019-05-20T11:49:52.344Z,4.05
2019-05-20T11:52:21.314Z,3.92
2019-05-20T11:54:50.121Z,4.25
2019-05-20T11:57:18.856Z,3.83
2019-05-20T11:59:47.918Z,3.55
2019-05-20T12:02:16.741Z,4.08
2019-05-20T12:04:45.684Z,3.60
2019-05-20T12:07:14.357Z,4.50
2019-05-20T12:09:49.654Z,3.65
2019-05-20T12:12:16.322Z,3.47
2019-05-20T12:14:45.409Z,4.20
2019-05-20T12:17:14.225Z,3.17
2019-05-20T12:19:43.128Z,3.75
2019-05-20T12:22:11.810Z,4.08
2019-05-20T12:24:40.861Z,3.70
2019-05-20T12:27:09.657Z,3.95
2019-05-20T12:29:38.476Z,3.73
2019-05-20T12:32:07.240Z,4.10
2019-05-20T12:34:35.941Z,4.00
2019-05-20T12:37:05.023Z,3.80
2019-05-20T12:39:34.465Z,4.37
2019-05-20T12:42:03.438Z,4.15
2019-05-20T12:44:32.256Z,4.20
2019-05-20T12:47:00.962Z,4.28
2019-05-20T12:49:29.729Z,3.15
2019-05-20T12:51:58.508Z,3.90
2019-05-20T12:54:27.343Z,4.43
2019-05-20T12:56:56.115Z,4.20
2019-05-20T12:59:24.853Z,4.50
2019-05-20T13:01:53.644Z,3.75
2019-05-20T13:04:22.594Z,3.98
2019-05-20T13:06:51.287Z,4.40
2019-05-20T13:09:20.307Z,3.95
2019-05-20T13:11:49.238Z,4.60
2019-05-20T13:14:18.458Z,4.83
2019-05-20T13:16:47.180Z,5.00
2019-05-20T13:19:16.176Z,4.47
2019-05-20T13:21:44.844Z,5.05
2019-05-20T13:24:13.869Z,4.35
2019-05-20T13:26:42.567Z,4.80
2019-05-20T13:29:11.451Z,4.78
2019-05-20T13:31:40.387Z,4.45
2019-05-20T13:34:09.201Z,4.33
2019-05-20T13:36:38.153Z,5.00
2019-05-20T13:39:08.550Z,4.75
2019-05-20T13:41:37.404Z,4.50
2019-05-20T13:44:06.465Z,4.83
2019-05-20T13:46:35.442Z,3.95
2019-05-20T13:49:04.117Z,4.80
2019-05-20T13:51:32.786Z,4.40
2019-05-20T13:54:01.603Z,5.15
2019-05-20T13:56:30.377Z,5.00
2019-05-20T13:58:59.177Z,5.03
2019-05-20T14:01:28.106Z,4.33
2019-05-20T14:03:58.150Z,4.57
2019-05-20T14:06:27.011Z,4.65
2019-05-20T14:08:55.946Z,4.70
2019-05-20T14:11:34.178Z,4.47
2019-05-20T14:13:55.500Z,5.33
2019-05-20T14:16:24.523Z,5.10
2019-05-20T14:18:53.209Z,4.97
2019-05-20T14:21:22.054Z,5.22
2019-05-20T14:23:51.201Z,5.12
2019-05-20T14:26:20.255Z,4.22
2019-05-20T14:28:49.436Z,5.53
2019-05-20T14:31:18.187Z,6.05
2019-05-20T14:33:47.145Z,5.75
2019-05-20T14:36:37.785Z,5.25
2019-05-20T14:38:46.555Z,5.30
2019-05-20T14:41:21.647Z,6.17
2019-05-20T14:43:45.772Z,5.50
2019-05-20T14:46:14.590Z,5.67
2019-05-20T14:48:43.276Z,6.58
2019-05-20T14:51:12.617Z,5.70
2019-05-20T14:53:41.567Z,6.58
2019-05-20T14:56:10.994Z,6.10
2019-05-20T14:58:39.774Z,6.25
2019-05-20T15:01:08.830Z,6.87
2019-05-20T15:03:37.805Z,6.42
2019-05-20T15:06:06.542Z,6.78
2019-05-20T15:08:35.375Z,6.30
2019-05-20T15:11:04.202Z,6.95
2019-05-20T15:13:32.863Z,7.27
2019-05-20T15:16:01.758Z,8.00
2019-05-20T15:18:30.645Z,8.43
2019-05-20T15:20:59.312Z,9.15
2019-05-20T15:23:28.099Z,7.90
2019-05-20T15:25:57.057Z,7.80
2019-05-20T15:28:25.734Z,6.87
2019-05-20T15:30:54.517Z,3.40
2019-05-20T15:33:23.263Z,1.80
2019-05-20T15:35:52.091Z,2.47
2019-05-20T15:38:21.131Z,2.00
2019-05-20T15:40:50.032Z,2.37
2019-05-20T15:43:18.680Z,2.65
2019-05-20T15:45:47.699Z,3.42
2019-05-20T15:48:16.389Z,4.05
2019-05-20T15:50:45.033Z,5.22
2019-05-20T15:53:13.958Z,4.42
2019-05-20T15:55:43.043Z,7.42
2019-05-20T15:58:11.730Z,8.50
2019-05-20T16:00:40.485Z,7.15
2019-05-20T16:03:09.374Z,5.37
2019-05-20T16:05:38.334Z,4.15
2019-05-20T16:08:07.384Z,5.45
2019-05-20T16:10:36.309Z,4.72
2019-05-20T16:13:05.065Z,3.95
2019-05-20T16:15:34.317Z,4.42
2019-05-20T16:18:03.102Z,4.15
2019-05-20T16:20:32.298Z,4.75
2019-05-20T16:23:01.290Z,4.90
2019-05-20T16:25:30.198Z,5.50
2019-05-20T16:27:59.090Z,4.87
2019-05-20T16:30:27.977Z,6.40
2019-05-20T16:32:56.800Z,5.78
2019-05-20T16:35:25.562Z,6.08
2019-05-20T16:37:54.687Z,5.33
2019-05-20T16:40:23.354Z,6.40
2019-05-20T16:42:54.555Z,7.20
2019-05-20T16:45:23.455Z,5.70
2019-05-20T16:47:52.162Z,6.54
2019-05-20T16:50:20.808Z,6.78
2019-05-20T16:52:52.102Z,6.10
2019-05-20T16:55:22.381Z,6.83
2019-05-20T16:57:51.791Z,7.17
2019-05-20T17:00:31.616Z,7.05
2019-05-20T17:02:51.720Z,7.08
2019-05-20T17:05:20.530Z,7.00
2019-05-20T17:07:49.473Z,7.60
2019-05-20T17:10:18.268Z,7.17
2019-05-20T17:12:47.082Z,7.55
2019-05-20T17:15:16.171Z,7.28
2019-05-20T17:17:45.412Z,8.28
2019-05-20T17:20:14.382Z,8.88
2019-05-20T17:22:44.322Z,8.43
2019-05-20T17:25:13.219Z,8.53
2019-05-20T17:27:42.014Z,9.18
2019-05-20T17:30:13.552Z,8.78
2019-05-20T17:32:42.365Z,9.15
2019-05-20T17:35:11.250Z,9.25
2019-05-20T17:37:40.077Z,8.43
2019-05-20T17:40:09.578Z,8.35
2019-05-20T17:42:38.428Z,8.28
2019-05-20T17:45:08.039Z,7.85
2019-05-20T17:47:36.926Z,7.72
2019-05-20T17:50:05.970Z,7.62
2019-05-20T17:52:35.143Z,7.05
2019-05-20T17:55:03.922Z,7.28
2019-05-20T17:57:32.805Z,8.07
2019-05-20T18:00:01.621Z,6.97
2019-05-20T18:02:30.675Z,7.03
2019-05-20T18:05:00.694Z,6.62
2019-05-20T18:07:29.767Z,6.83
2019-05-20T18:09:58.634Z,7.28
2019-05-20T18:12:27.481Z,7.10
2019-05-20T18:14:59.295Z,7.17
2019-05-20T18:17:30.690Z,7.47
2019-05-20T18:19:59.735Z,7.37
2019-05-20T18:22:28.550Z,7.53
2019-05-20T18:24:57.550Z,7.53
2019-05-20T18:27:26.482Z,8.35
2019-05-20T18:29:57.946Z,8.15
2019-05-20T18:32:26.786Z,9.03
2019-05-20T18:34:55.709Z,9.78
2019-05-20T18:37:24.694Z,9.33
2019-05-20T18:39:53.378Z,10.05
2019-05-20T18:42:22.310Z,6.87
2019-05-20T18:44:50.993Z,7.28
2019-05-20T18:47:19.738Z,5.70
2019-05-20T18:49:48.428Z,7.58
2019-05-20T18:52:17.535Z,7.55
2019-05-20T18:54:46.335Z,8.83
2019-05-20T18:57:15.219Z,9.05
2019-05-20T18:59:44.166Z,10.60
2019-05-20T19:02:12.986Z,10.53
2019-05-20T19:04:43.591Z,10.93
2019-05-20T19:07:12.547Z,11.08
2019-05-20T19:09:41.318Z,11.68
2019-05-20T19:12:10.185Z,11.55
2019-05-20T19:14:38.989Z,11.68
2019-05-20T19:17:08.136Z,11.75
2019-05-20T19:19:37.013Z,12.20
2019-05-20T19:22:06.051Z,12.23
2019-05-20T19:24:34.806Z,12.25
2019-05-20T19:27:05.728Z,11.60
2019-05-20T19:29:34.443Z,9.13
2019-05-20T19:32:03.919Z,11.25
2019-05-20T19:34:32.626Z,9.53
2019-05-20T19:37:01.382Z,8.13
2019-05-20T19:39:30.099Z,9.73
2019-05-20T19:41:58.889Z,7.35
2019-05-20T19:44:27.667Z,8.38
2019-05-20T19:46:56.379Z,8.53
2019-05-20T19:49:25.142Z,8.47
2019-05-20T19:51:54.249Z,7.55
2019-05-20T19:54:22.963Z,8.30
2019-05-20T19:56:52.130Z,7.50
2019-05-20T19:59:21.177Z,7.37
2019-05-20T20:01:49.862Z,6.60
2019-05-20T20:04:18.543Z,7.95
2019-05-20T20:06:47.439Z,6.50
2019-05-20T20:09:16.156Z,6.92
2019-05-20T20:11:45.030Z,7.40
2019-05-20T20:14:13.763Z,7.72
2019-05-20T20:16:42.705Z,7.30
2019-05-20T20:19:11.364Z,8.03
2019-05-20T20:21:40.251Z,7.95
2019-05-20T20:24:09.549Z,7.67
2019-05-20T20:26:38.384Z,8.35
2019-05-20T20:29:11.157Z,8.25
2019-05-20T20:31:39.715Z,8.03
2019-05-20T20:34:08.398Z,8.47
2019-05-20T20:36:37.185Z,8.43
2019-05-20T20:39:06.490Z,8.45
2019-05-20T20:41:35.229Z,9.30
2019-05-20T20:44:04.534Z,8.55
2019-05-20T20:46:33.644Z,8.23
2019-05-20T20:49:02.428Z,8.88
2019-05-20T20:51:31.217Z,8.35
2019-05-20T20:53:59.916Z,8.85
2019-05-20T20:56:28.590Z,8.67
2019-05-20T20:58:57.827Z,8.88
2019-05-20T21:01:26.553Z,8.38
2019-05-20T21:03:55.229Z,7.85
2019-05-20T21:06:24.001Z,7.92
2019-05-20T21:08:52.826Z,8.15
2019-05-20T21:11:21.878Z,7.90
2019-05-20T21:13:51.030Z,8.55
2019-05-20T21:16:19.722Z,7.03
2019-05-20T21:18:48.394Z,7.95
2019-05-20T21:21:17.182Z,8.13
2019-05-20T21:23:46.120Z,7.30
2019-05-20T21:26:14.775Z,8.23
2019-05-20T21:28:43.502Z,8.98
2019-05-20T21:31:12.715Z,8.18
2019-05-20T21:33:41.672Z,8.15
2019-05-20T21:36:10.771Z,8.48
2019-05-20T21:38:39.666Z,8.03
2019-05-20T21:41:08.644Z,8.23
2019-05-20T21:43:37.512Z,8.47
2019-05-20T21:46:06.309Z,8.48
2019-05-20T21:48:35.079Z,8.55
2019-05-20T21:51:04.165Z,9.40
2019-05-20T21:53:33.219Z,9.40
2019-05-20T21:56:02.111Z,8.48
2019-05-20T21:58:31.275Z,9.08
2019-05-20T22:01:00.161Z,7.53
2019-05-20T22:03:29.141Z,9.00
2019-05-20T22:05:58.111Z,9.43
2019-05-20T22:08:26.897Z,8.55
2019-05-20T22:10:55.620Z,9.10
2019-05-20T22:13:24.571Z,8.73
2019-05-20T22:15:53.286Z,8.50
2019-05-20T22:18:21.962Z,9.83
2019-05-20T22:20:50.714Z,9.10
2019-05-20T22:23:41.582Z,10.15
2019-05-20T22:26:10.397Z,10.90
2019-05-20T22:28:39.193Z,10.03
2019-05-20T22:31:26.163Z,10.35
2019-05-20T22:33:56.693Z,9.25
2019-05-20T22:36:25.375Z,10.82
2019-05-20T22:38:54.146Z,11.10
2019-05-20T22:41:22.965Z,10.90
2019-05-20T22:43:55.701Z,10.82
2019-05-20T22:46:24.571Z,11.68
2019-05-20T22:48:53.274Z,11.18
2019-05-20T22:51:21.965Z,10.65
2019-05-20T22:53:50.694Z,11.25
2019-05-20T22:56:19.720Z,10.18
2019-05-20T22:58:49.035Z,9.68
2019-05-20T23:01:17.927Z,10.08
2019-05-20T23:04:22.486Z,12.10
2019-05-20T23:06:51.296Z,11.10
2019-05-20T23:09:20.063Z,11.63
2019-05-20T23:11:49.129Z,10.90
2019-05-20T23:14:17.843Z,11.60
2019-05-20T23:16:46.533Z,11.88
2019-05-20T23:19:15.450Z,12.13
2019-05-20T23:21:44.498Z,11.85
2019-05-20T23:24:13.246Z,13.35
2019-05-20T23:26:41.949Z,12.47
2019-05-20T23:29:11.071Z,11.73
2019-05-20T23:31:39.847Z,12.37
2019-05-20T23:34:12.732Z,12.75
2019-05-20T23:36:39.413Z,12.07
2019-05-20T23:39:08.318Z,11.83
2019-05-20T23:41:36.997Z,11.70
2019-05-20T23:44:05.774Z,11.33
2019-05-20T23:46:34.471Z,12.13
2019-05-20T23:49:03.171Z,11.95
2019-05-20T23:51:32.139Z,12.53
2019-05-20T23:54:00.818Z,12.35
2019-05-20T23:56:29.779Z,11.80
2019-05-20T23:58:58.602Z,13.88
